createdAt,value
2018-04-17T00:01:20.526Z,9.63
2018-04-17T00:03:48.001Z,17.57
2018-04-17T00:06:15.457Z,10.67
2018-04-17T00:08:42.933Z,11.07
2018-04-17T00:11:10.387Z,6.93
2018-04-17T00:13:37.847Z,9.50
2018-04-17T00:16:05.322Z,10.57
2018-04-17T00:18:32.785Z,10.50
2018-04-17T00:21:00.262Z,8.83
2018-04-17T00:23:27.729Z,11.87
2018-04-17T00:25:55.211Z,12.00
2018-04-17T00:28:22.674Z,10.07
2018-04-17T00:30:50.141Z,9.07
2018-04-17T00:33:17.593Z,7.93
2018-04-17T00:35:45.087Z,9.00
2018-04-17T00:38:12.550Z,10.17
2018-04-17T00:40:40.026Z,14.83
2018-04-17T00:43:07.487Z,12.63
2018-04-17T00:45:34.965Z,9.60
2018-04-17T00:48:02.421Z,8.80
2018-04-17T00:50:29.888Z,10.57
2018-04-17T00:52:57.346Z,7.57
2018-04-17T00:55:24.826Z,10.27
2018-04-17T00:57:52.281Z,9.40
2018-04-17T01:00:19.753Z,8.73
2018-04-17T01:02:47.206Z,9.10
2018-04-17T01:05:14.682Z,10.13
2018-04-17T01:07:42.146Z,11.93
2018-04-17T01:10:09.649Z,11.23
2018-04-17T01:12:37.118Z,10.47
2018-04-17T01:15:04.585Z,9.47
2018-04-17T01:17:32.052Z,11.43
2018-04-17T01:19:59.535Z,12.60
2018-04-17T01:22:27.002Z,8.17
2018-04-17T01:24:54.478Z,12.13
2018-04-17T01:27:21.942Z,10.47
2018-04-17T01:29:49.417Z,9.83
2018-04-17T01:32:16.884Z,8.30
2018-04-17T01:34:44.366Z,7.77
2018-04-17T01:37:11.847Z,8.20
2018-04-17T01:39:39.353Z,9.37
2018-04-17T01:42:06.805Z,9.80
2018-04-17T01:44:34.261Z,8.20
2018-04-17T01:47:01.750Z,8.93
2018-04-17T01:49:29.210Z,8.30
2018-04-17T01:51:56.694Z,11.87
2018-04-17T01:54:24.155Z,9.97
2018-04-17T01:56:51.657Z,6.00
2018-04-17T01:59:19.125Z,10.53
2018-04-17T02:01:46.614Z,9.17
2018-04-17T02:04:14.069Z,10.13
2018-04-17T02:06:41.549Z,8.03
2018-04-17T02:09:09.002Z,7.23
2018-04-17T02:11:36.470Z,7.07
2018-04-17T02:14:03.938Z,6.97
2018-04-17T02:16:31.417Z,6.97
2018-04-17T02:18:58.873Z,11.03
2018-04-17T02:21:26.353Z,10.57
2018-04-17T02:23:53.809Z,7.10
2018-04-17T02:26:21.281Z,9.20
2018-04-17T02:28:48.733Z,8.90
2018-04-17T02:31:16.214Z,7.23
2018-04-17T02:33:43.669Z,8.77
2018-04-17T02:36:11.146Z,9.30
2018-04-17T02:38:38.611Z,11.10
2018-04-17T02:41:06.095Z,10.27
2018-04-17T02:43:33.556Z,11.27
2018-04-17T02:46:01.033Z,8.03
2018-04-17T02:48:28.495Z,11.20
2018-04-17T02:50:55.974Z,10.47
2018-04-17T02:53:23.438Z,7.80
2018-04-17T02:55:50.921Z,14.97
2018-04-17T02:58:18.375Z,7.27
2018-04-17T03:00:45.863Z,11.57
2018-04-17T03:03:13.318Z,10.67
2018-04-17T03:05:40.793Z,8.17
2018-04-17T03:08:08.251Z,7.83
2018-04-17T03:10:35.714Z,6.50
2018-04-17T03:13:03.187Z,5.63
2018-04-17T03:15:30.641Z,6.73
2018-04-17T03:17:58.109Z,6.87
2018-04-17T03:20:25.573Z,8.07
2018-04-17T03:22:53.062Z,8.37
2018-04-17T03:25:20.519Z,11.60
2018-04-17T03:27:48.013Z,9.10
2018-04-17T03:30:15.477Z,7.47
2018-04-17T03:32:42.963Z,9.20
2018-04-17T03:35:10.421Z,6.90
2018-04-17T03:37:37.907Z,9.97
2018-04-17T03:40:05.361Z,9.10
2018-04-17T03:42:32.842Z,14.73
2018-04-17T03:45:00.305Z,13.27
2018-04-17T03:47:27.780Z,10.77
2018-04-17T03:49:55.239Z,11.80
2018-04-17T03:52:22.705Z,9.20
2018-04-17T03:54:50.177Z,11.10
2018-04-17T03:57:17.662Z,11.20
2018-04-17T03:59:45.113Z,11.43
2018-04-17T04:02:12.589Z,13.03
2018-04-17T04:04:40.051Z,9.73
2018-04-17T04:07:07.525Z,12.33
2018-04-17T04:09:34.977Z,7.30
2018-04-17T04:12:02.522Z,7.40
2018-04-17T04:14:29.981Z,8.20
2018-04-17T04:17:09.073Z,7.37
2018-04-17T04:19:48.195Z,10.83
2018-04-17T04:22:27.378Z,9.73
2018-04-17T04:25:21.472Z,13.37
2018-04-17T04:27:48.966Z,14.90
2018-04-17T04:30:16.441Z,13.97
2018-04-17T04:32:44.774Z,14.73
2018-04-17T04:35:12.233Z,19.33
2018-04-17T04:37:39.714Z,8.63
2018-04-17T04:40:07.170Z,17.90
2018-04-17T04:42:34.658Z,15.90
2018-04-17T04:45:02.122Z,12.37
2018-04-17T04:47:29.609Z,10.77
2018-04-17T04:49:57.071Z,13.70
2018-04-17T04:52:24.523Z,16.20
2018-04-17T04:54:52.005Z,12.23
2018-04-17T04:57:19.466Z,10.67
2018-04-17T04:59:46.946Z,10.77
2018-04-17T05:02:14.410Z,13.80
2018-04-17T05:04:41.885Z,8.37
2018-04-17T05:07:09.350Z,9.37
2018-04-17T05:09:36.826Z,10.20
2018-04-17T05:12:04.286Z,14.40
2018-04-17T05:14:31.770Z,9.40
2018-04-17T05:16:59.233Z,14.37
2018-04-17T05:19:26.706Z,10.43
2018-04-17T05:21:54.271Z,10.13
2018-04-17T05:24:21.765Z,11.30
2018-04-17T05:26:49.226Z,8.37
2018-04-17T05:29:16.703Z,10.40
2018-04-17T05:31:44.164Z,9.50
2018-04-17T05:34:11.663Z,8.37
2018-04-17T05:36:39.114Z,8.53
2018-04-17T05:39:06.599Z,16.53
2018-04-17T05:41:34.055Z,15.07
2018-04-17T05:44:01.541Z,15.73
2018-04-17T05:46:28.994Z,11.33
2018-04-17T05:48:56.478Z,18.73
2018-04-17T05:51:23.947Z,16.13
2018-04-17T05:53:51.422Z,11.97
2018-04-17T05:56:18.872Z,14.67
2018-04-17T05:58:47.269Z,13.03
2018-04-17T06:01:14.732Z,10.23
2018-04-17T06:03:42.218Z,13.33
2018-04-17T06:06:09.678Z,14.10
2018-04-17T06:08:37.157Z,13.90
2018-04-17T06:11:04.627Z,15.50
2018-04-17T06:13:32.129Z,14.77
2018-04-17T06:15:59.585Z,13.33
2018-04-17T06:18:27.048Z,15.17
2018-04-17T06:20:54.543Z,10.00
2018-04-17T06:23:22.046Z,13.33
2018-04-17T06:25:49.518Z,11.07
2018-04-17T06:28:16.989Z,13.40
2018-04-17T06:30:44.498Z,12.47
2018-04-17T06:33:11.966Z,14.03
2018-04-17T06:35:39.449Z,15.07
2018-04-17T06:38:07.327Z,11.27
2018-04-17T06:40:34.804Z,14.87
2018-04-17T06:43:02.268Z,14.10
2018-04-17T06:45:29.774Z,14.77
2018-04-17T06:47:57.234Z,10.73
2018-04-17T06:50:24.733Z,10.90
2018-04-17T06:52:52.213Z,18.57
2018-04-17T06:55:19.696Z,16.40
2018-04-17T06:57:47.158Z,18.63
2018-04-17T07:00:14.633Z,18.23
2018-04-17T07:02:42.098Z,19.23
2018-04-17T07:05:09.577Z,15.63
2018-04-17T07:07:37.038Z,19.30
2018-04-17T07:10:04.519Z,14.10
2018-04-17T07:12:31.978Z,18.40
2018-04-17T07:14:59.465Z,20.87
2018-04-17T07:17:26.930Z,18.30
2018-04-17T07:19:54.418Z,18.77
2018-04-17T07:22:21.882Z,23.90
2018-04-17T07:24:49.371Z,12.50
2018-04-17T07:27:16.834Z,14.43
2018-04-17T07:29:44.310Z,15.70
2018-04-17T07:32:11.770Z,13.17
2018-04-17T07:34:39.326Z,13.50
2018-04-17T07:37:06.741Z,19.70
2018-04-17T07:39:34.235Z,18.90
2018-04-17T07:42:01.702Z,14.50
2018-04-17T07:44:29.189Z,16.07
2018-04-17T07:47:08.708Z,14.77
2018-04-17T07:49:36.175Z,15.57
2018-04-17T07:52:03.664Z,18.17
2018-04-17T07:54:31.128Z,18.53
2018-04-17T07:56:58.609Z,12.47
2018-04-17T07:59:26.073Z,15.53
2018-04-17T08:01:53.558Z,13.63
2018-04-17T08:04:21.017Z,11.93
2018-04-17T08:06:48.506Z,15.60
2018-04-17T08:09:15.983Z,15.80
2018-04-17T08:11:43.474Z,19.30
2018-04-17T08:14:10.942Z,14.40
2018-04-17T08:16:38.438Z,19.93
2018-04-17T08:19:05.916Z,20.47
2018-04-17T08:21:33.403Z,14.67
2018-04-17T08:24:00.876Z,17.33
2018-04-17T08:26:28.357Z,16.83
2018-04-17T08:28:55.818Z,18.47
2018-04-17T08:31:23.306Z,16.43
2018-04-17T08:33:50.774Z,20.73
2018-04-17T08:36:18.254Z,14.00
2018-04-17T08:38:45.727Z,19.43
2018-04-17T08:41:13.209Z,14.50
2018-04-17T08:43:40.681Z,18.87
2018-04-17T08:46:08.184Z,17.27
2018-04-17T08:48:35.648Z,15.77
2018-04-17T08:51:03.129Z,15.17
2018-04-17T08:53:30.593Z,16.80
2018-04-17T08:55:58.084Z,18.17
2018-04-17T08:58:25.551Z,16.80
2018-04-17T09:00:53.035Z,13.50
2018-04-17T09:03:20.503Z,16.30
2018-04-17T09:05:47.990Z,14.77
2018-04-17T09:08:15.469Z,16.57
2018-04-17T09:10:42.958Z,17.97
2018-04-17T09:13:10.426Z,14.87
2018-04-17T09:15:37.902Z,16.33
2018-04-17T09:18:05.396Z,15.00
2018-04-17T09:20:32.879Z,17.67
2018-04-17T09:23:00.367Z,14.80
2018-04-17T09:25:27.873Z,17.63
2018-04-17T09:27:55.363Z,19.57
2018-04-17T09:30:22.838Z,15.60
2018-04-17T09:32:50.330Z,16.77
2018-04-17T09:35:17.801Z,17.20
2018-04-17T09:37:45.291Z,16.30
2018-04-17T09:40:12.769Z,17.50
2018-04-17T09:42:40.253Z,16.77
2018-04-17T09:45:07.732Z,20.67
2018-04-17T09:47:35.226Z,18.00
2018-04-17T09:50:02.706Z,17.37
2018-04-17T09:52:30.186Z,18.87
2018-04-17T09:54:57.651Z,16.07
2018-04-17T09:57:25.138Z,18.27
2018-04-17T09:59:52.641Z,18.10
2018-04-17T10:02:20.130Z,16.33
2018-04-17T10:04:47.606Z,16.97
2018-04-17T10:07:15.103Z,16.87
2018-04-17T10:09:42.577Z,15.60
2018-04-17T10:12:10.066Z,15.67
2018-04-17T10:14:37.542Z,17.47
2018-04-17T10:17:05.044Z,16.30
2018-04-17T10:19:32.524Z,16.57
2018-04-17T10:22:00.018Z,13.43
2018-04-17T10:24:27.482Z,17.93
2018-04-17T10:26:54.974Z,16.23
2018-04-17T10:29:22.529Z,15.50
2018-04-17T10:31:50.052Z,16.13
2018-04-17T10:34:17.786Z,16.97
2018-04-17T10:36:56.451Z,14.97
2018-04-17T10:39:23.964Z,19.10
2018-04-17T10:41:51.467Z,17.30
2018-04-17T10:44:18.934Z,15.73
2018-04-17T10:46:46.401Z,19.47
2018-04-17T10:49:13.905Z,16.00
2018-04-17T10:51:41.375Z,16.03
2018-04-17T10:54:08.879Z,19.23
2018-04-17T10:56:36.359Z,15.17
2018-04-17T10:59:03.923Z,17.90
2018-04-17T11:01:31.627Z,15.13
2018-04-17T11:03:59.178Z,17.73
2018-04-17T11:06:26.618Z,17.03
2018-04-17T11:08:54.116Z,16.33
2018-04-17T11:11:21.573Z,15.93
2018-04-17T11:13:49.071Z,14.87
2018-04-17T11:16:16.605Z,18.10
2018-04-17T11:18:44.053Z,15.53
2018-04-17T11:21:11.531Z,18.33
2018-04-17T11:23:39.025Z,16.10
2018-04-17T11:26:06.498Z,15.03
2018-04-17T11:28:33.985Z,18.07
2018-04-17T11:31:01.462Z,16.53
2018-04-17T11:33:28.949Z,17.33
2018-04-17T11:35:56.423Z,18.63
2018-04-17T11:38:23.928Z,15.63
2018-04-17T11:40:51.470Z,17.73
2018-04-17T11:43:18.966Z,15.43
2018-04-17T11:45:46.434Z,18.20
2018-04-17T11:48:13.926Z,15.23
2018-04-17T11:50:41.393Z,15.67
2018-04-17T11:53:08.886Z,18.27
2018-04-17T11:55:36.355Z,16.13
2018-04-17T11:58:03.854Z,17.40
2018-04-17T12:00:31.319Z,17.13
2018-04-17T12:02:58.811Z,17.60
2018-04-17T12:05:26.281Z,14.97
2018-04-17T12:07:53.786Z,16.13
2018-04-17T12:10:21.257Z,16.63
2018-04-17T12:12:48.721Z,16.80
2018-04-17T12:15:16.222Z,18.97
2018-04-17T12:17:43.694Z,15.40
2018-04-17T12:20:11.191Z,14.73
2018-04-17T12:22:38.663Z,13.93
2018-04-17T12:25:06.154Z,15.53
2018-04-17T12:27:33.632Z,15.00
2018-04-17T12:30:01.140Z,14.90
2018-04-17T12:32:28.651Z,16.37
2018-04-17T12:34:56.149Z,15.30
2018-04-17T12:37:23.682Z,16.80
2018-04-17T12:39:51.182Z,16.53
2018-04-17T12:42:18.654Z,14.10
2018-04-17T12:44:46.153Z,14.50
2018-04-17T12:47:13.634Z,16.23
2018-04-17T12:49:41.130Z,16.27
2018-04-17T12:52:08.601Z,13.80
2018-04-17T12:54:36.090Z,13.00
2018-04-17T12:57:03.550Z,15.43
2018-04-17T12:59:31.051Z,15.27
2018-04-17T13:01:58.532Z,16.03
2018-04-17T13:04:26.028Z,16.13
2018-04-17T13:06:53.502Z,13.63
2018-04-17T13:09:20.990Z,10.43
2018-04-17T13:11:48.458Z,11.53
2018-04-17T13:14:15.955Z,10.37
2018-04-17T13:16:43.426Z,10.37
2018-04-17T13:19:10.911Z,10.97
2018-04-17T13:21:38.457Z,10.03
2018-04-17T13:24:05.877Z,11.90
2018-04-17T13:26:33.378Z,10.77
2018-04-17T13:29:00.847Z,11.70
2018-04-17T13:31:28.317Z,10.63
2018-04-17T13:33:55.837Z,9.60
2018-04-17T13:36:23.400Z,9.88
2018-04-17T13:38:50.786Z,8.82
2018-04-17T13:41:18.291Z,10.75
2018-04-17T13:43:45.771Z,10.18
2018-04-17T13:46:13.251Z,9.93
2018-04-17T13:48:40.733Z,8.65
2018-04-17T13:51:08.209Z,9.90
2018-04-17T13:53:35.673Z,9.55
2018-04-17T13:56:03.157Z,8.07
2018-04-17T13:58:30.622Z,9.30
2018-04-17T14:00:58.115Z,12.48
2018-04-17T14:03:25.583Z,9.98
2018-04-17T14:05:53.092Z,10.77
2018-04-17T14:08:20.682Z,7.37
2018-04-17T14:10:48.166Z,8.88
2018-04-17T14:13:15.626Z,5.62
2018-04-17T14:15:43.096Z,8.10
2018-04-17T14:18:10.557Z,6.95
2018-04-17T14:20:38.034Z,9.98
2018-04-17T14:23:05.500Z,9.10
2018-04-17T14:25:33.030Z,8.63
2018-04-17T14:28:00.458Z,9.85
2018-04-17T14:30:27.971Z,8.70
2018-04-17T14:32:55.426Z,7.62
2018-04-17T14:35:22.907Z,9.10
2018-04-17T14:37:50.379Z,6.18
2018-04-17T14:40:17.891Z,7.62
2018-04-17T14:42:47.140Z,8.70
2018-04-17T14:45:14.622Z,8.82
2018-04-17T14:47:42.093Z,6.47
2018-04-17T14:50:09.572Z,7.35
2018-04-17T14:52:37.034Z,6.97
2018-04-17T14:55:04.518Z,4.93
2018-04-17T14:57:31.984Z,6.35
2018-04-17T14:59:59.453Z,6.50
2018-04-17T15:02:26.929Z,8.80
2018-04-17T15:04:54.397Z,6.93
2018-04-17T15:07:21.878Z,6.53
2018-04-17T15:09:49.342Z,6.75
2018-04-17T15:12:16.829Z,7.32
2018-04-17T15:14:44.289Z,9.88
2018-04-17T15:17:11.761Z,7.00
2018-04-17T15:19:39.962Z,7.18
2018-04-17T15:22:07.441Z,7.15
2018-04-17T15:24:34.897Z,7.93
2018-04-17T15:27:02.374Z,5.93
2018-04-17T15:29:29.833Z,6.75
2018-04-17T15:31:57.317Z,7.78
2018-04-17T15:34:24.785Z,8.02
2018-04-17T15:36:52.266Z,6.30
2018-04-17T15:39:19.725Z,6.78
2018-04-17T15:41:47.218Z,8.82
2018-04-17T15:44:14.695Z,6.87
2018-04-17T15:46:42.190Z,6.82
2018-04-17T15:49:09.657Z,7.45
2018-04-17T15:51:37.138Z,7.05
2018-04-17T15:54:04.619Z,5.87
2018-04-17T15:56:32.112Z,7.10
2018-04-17T15:58:59.578Z,6.37
2018-04-17T16:01:27.053Z,6.03
2018-04-17T16:04:01.124Z,6.72
2018-04-17T16:06:28.649Z,5.00
2018-04-17T16:08:56.115Z,4.85
2018-04-17T16:11:23.594Z,4.90
2018-04-17T16:13:51.055Z,6.53
2018-04-17T16:16:18.542Z,6.72
2018-04-17T16:18:46.011Z,8.25
2018-04-17T16:21:13.509Z,5.18
2018-04-17T16:23:40.974Z,7.95
2018-04-17T16:26:08.457Z,5.25
2018-04-17T16:28:35.946Z,6.57
2018-04-17T16:31:03.418Z,6.07
2018-04-17T16:33:31.667Z,6.43
2018-04-17T16:36:00.266Z,6.05
2018-04-17T16:38:27.782Z,4.90
2018-04-17T16:40:55.258Z,5.22
2018-04-17T16:43:22.747Z,6.20
2018-04-17T16:45:50.210Z,5.30
2018-04-17T16:48:17.707Z,5.97
2018-04-17T16:50:45.171Z,5.82
2018-04-17T16:53:12.649Z,5.60
2018-04-17T16:55:40.111Z,5.78
2018-04-17T16:58:07.595Z,7.07
2018-04-17T17:00:35.055Z,8.13
2018-04-17T17:03:02.544Z,9.80
2018-04-17T17:05:30.027Z,8.00
2018-04-17T17:07:57.509Z,7.57
2018-04-17T17:10:24.997Z,7.93
2018-04-17T17:12:52.476Z,4.53
2018-04-17T17:15:19.939Z,6.37
2018-04-17T17:17:47.441Z,5.90
2018-04-17T17:20:14.906Z,6.57
2018-04-17T17:22:42.386Z,6.07
2018-04-17T17:25:09.862Z,6.33
2018-04-17T17:27:37.346Z,7.03
2018-04-17T17:30:04.809Z,7.90
2018-04-17T17:32:32.307Z,5.97
2018-04-17T17:34:59.815Z,6.43
2018-04-17T17:37:27.284Z,6.00
2018-04-17T17:39:54.758Z,7.87
2018-04-17T17:42:22.247Z,8.90
2018-04-17T17:44:50.638Z,6.17
2018-04-17T17:47:18.123Z,6.57
2018-04-17T17:49:45.590Z,6.63
2018-04-17T17:52:13.064Z,6.70
2018-04-17T17:54:40.527Z,6.00
2018-04-17T17:57:08.001Z,5.83
2018-04-17T17:59:35.478Z,9.67
2018-04-17T18:02:02.950Z,11.03
2018-04-17T18:04:30.425Z,7.77
2018-04-17T18:06:57.883Z,5.13
2018-04-17T18:09:25.362Z,7.97
2018-04-17T18:11:52.827Z,6.30
2018-04-17T18:14:20.301Z,7.40
2018-04-17T18:16:47.761Z,8.53
2018-04-17T18:19:15.246Z,5.77
2018-04-17T18:21:42.713Z,5.87
2018-04-17T18:24:10.198Z,5.17
2018-04-17T18:26:38.622Z,5.27
2018-04-17T18:29:06.808Z,6.63
2018-04-17T18:31:34.264Z,3.20
2018-04-17T18:34:01.747Z,7.10
2018-04-17T18:36:29.206Z,7.43
2018-04-17T18:38:56.685Z,5.00
2018-04-17T18:41:24.158Z,7.13
2018-04-17T18:43:51.646Z,4.20
2018-04-17T18:46:19.108Z,6.33
2018-04-17T18:48:46.613Z,5.43
2018-04-17T18:51:14.070Z,7.20
2018-04-17T18:53:42.566Z,9.07
2018-04-17T18:56:10.031Z,8.03
2018-04-17T18:58:37.511Z,5.00
2018-04-17T19:01:04.969Z,9.77
2018-04-17T19:03:32.453Z,6.60
2018-04-17T19:05:59.919Z,5.83
2018-04-17T19:08:27.405Z,4.97
2018-04-17T19:10:54.861Z,7.33
2018-04-17T19:13:22.359Z,8.23
2018-04-17T19:15:49.821Z,6.40
2018-04-17T19:18:17.301Z,6.37
2018-04-17T19:20:44.779Z,6.73
2018-04-17T19:23:12.287Z,8.83
2018-04-17T19:25:39.790Z,7.60
2018-04-17T19:28:13.129Z,7.47
2018-04-17T19:30:40.587Z,7.43
2018-04-17T19:33:08.111Z,7.00
2018-04-17T19:35:35.573Z,5.23
2018-04-17T19:38:03.066Z,6.67
2018-04-17T19:40:30.527Z,7.20
2018-04-17T19:42:58.013Z,8.20
2018-04-17T19:45:25.484Z,7.37
2018-04-17T19:47:52.974Z,5.90
2018-04-17T19:50:20.437Z,9.60
2018-04-17T19:52:47.919Z,9.93
2018-04-17T19:55:15.382Z,10.00
2018-04-17T19:57:42.873Z,7.20
2018-04-17T20:00:10.350Z,6.30
2018-04-17T20:02:37.842Z,5.27
2018-04-17T20:05:05.342Z,8.17
2018-04-17T20:07:32.801Z,8.10
2018-04-17T20:10:00.288Z,10.33
2018-04-17T20:12:27.750Z,4.17
2018-04-17T20:14:55.237Z,11.47
2018-04-17T20:17:22.704Z,8.43
2018-04-17T20:19:50.189Z,6.03
2018-04-17T20:22:17.654Z,6.07
2018-04-17T20:24:45.134Z,8.03
2018-04-17T20:27:12.599Z,7.63
2018-04-17T20:29:40.087Z,6.27
2018-04-17T20:32:07.557Z,10.70
2018-04-17T20:34:35.037Z,5.83
2018-04-17T20:37:02.503Z,5.57
2018-04-17T20:39:29.987Z,6.03
2018-04-17T20:41:57.448Z,7.90
2018-04-17T20:44:24.929Z,6.73
2018-04-17T20:46:52.396Z,8.33
2018-04-17T20:49:19.877Z,6.67
2018-04-17T20:51:47.331Z,5.03
2018-04-17T20:54:14.809Z,8.27
2018-04-17T20:56:42.269Z,6.17
2018-04-17T20:59:09.757Z,6.23
2018-04-17T21:01:37.211Z,9.97
2018-04-17T21:04:04.689Z,8.17
2018-04-17T21:06:32.153Z,6.90
2018-04-17T21:08:59.633Z,7.77
2018-04-17T21:11:27.089Z,7.03
2018-04-17T21:13:54.558Z,7.20
2018-04-17T21:16:23.968Z,7.27
2018-04-17T21:18:51.494Z,7.90
2018-04-17T21:21:18.953Z,5.60
2018-04-17T21:23:46.430Z,7.90
2018-04-17T21:26:13.906Z,11.17
2018-04-17T21:28:41.390Z,10.27
2018-04-17T21:31:15.334Z,9.80
2018-04-17T21:33:42.827Z,11.00
2018-04-17T21:36:10.302Z,4.67
2018-04-17T21:38:37.804Z,10.97
2018-04-17T21:41:05.258Z,8.63
2018-04-17T21:43:32.749Z,8.27
2018-04-17T21:46:00.210Z,7.60
2018-04-17T21:48:27.688Z,7.70
2018-04-17T21:50:55.144Z,8.20
2018-04-17T21:53:22.604Z,6.13
2018-04-17T21:55:50.079Z,7.03
2018-04-17T21:58:17.538Z,9.17
2018-04-17T22:00:45.018Z,6.53
2018-04-17T22:03:12.477Z,7.90
2018-04-17T22:05:39.967Z,5.27
2018-04-17T22:08:07.427Z,8.40
2018-04-17T22:10:34.911Z,8.23
2018-04-17T22:13:02.388Z,6.70
2018-04-17T22:15:29.874Z,8.80
2018-04-17T22:17:57.338Z,6.20
2018-04-17T22:20:24.817Z,9.70
2018-04-17T22:22:52.277Z,9.30
2018-04-17T22:25:19.765Z,7.90
2018-04-17T22:27:47.226Z,6.50
2018-04-17T22:30:14.701Z,8.43
2018-04-17T22:32:42.166Z,9.50
2018-04-17T22:35:09.660Z,8.17
2018-04-17T22:37:37.127Z,11.07
2018-04-17T22:40:04.626Z,8.60
2018-04-17T22:42:32.095Z,10.47
2018-04-17T22:44:59.575Z,8.33
2018-04-17T22:47:27.050Z,9.33
2018-04-17T22:49:54.546Z,13.43
2018-04-17T22:52:22.005Z,8.83
2018-04-17T22:54:49.490Z,8.70
2018-04-17T22:57:16.947Z,6.47
2018-04-17T22:59:44.441Z,10.37
2018-04-17T23:02:11.904Z,10.33
2018-04-17T23:04:39.393Z,11.90
2018-04-17T23:07:06.856Z,6.83
2018-04-17T23:09:34.342Z,9.20
2018-04-17T23:12:01.813Z,9.77
2018-04-17T23:14:29.308Z,6.73
2018-04-17T23:16:56.773Z,11.33
2018-04-17T23:19:24.258Z,6.73
2018-04-17T23:21:51.716Z,8.77
2018-04-17T23:24:19.207Z,8.23
2018-04-17T23:26:46.670Z,8.00
2018-04-17T23:29:14.149Z,10.07
2018-04-17T23:31:41.610Z,6.60
2018-04-17T23:34:09.092Z,8.57
2018-04-17T23:36:36.554Z,6.33
2018-04-17T23:39:04.073Z,7.87
2018-04-17T23:41:31.532Z,9.83
2018-04-17T23:43:58.989Z,5.87
2018-04-17T23:46:26.472Z,4.83
2018-04-17T23:48:53.929Z,6.73
2018-04-17T23:51:21.414Z,8.50
2018-04-17T23:53:48.881Z,9.00
2018-04-17T23:56:16.358Z,9.53
2018-04-17T23:58:43.818Z,8.77
